createdAt,value
2019-04-25T00:00:34.861Z,84.34
2019-04-25T00:01:34.786Z,84.67
2019-04-25T00:02:34.698Z,84.63
2019-04-25T00:03:34.622Z,84.72
2019-04-25T00:04:34.547Z,84.44
2019-04-25T00:05:34.462Z,84.25
2019-04-25T00:06:34.389Z,84.53
2019-04-25T00:07:34.298Z,84.77
2019-04-25T00:08:34.238Z,85.01
2019-04-25T00:09:34.135Z,84.53
2019-04-25T00:10:34.079Z,84.63
2019-04-25T00:11:33.977Z,85.21
2019-04-25T00:12:33.898Z,85.78
2019-04-25T00:13:33.823Z,86.74
2019-04-25T00:14:33.737Z,86.64
2019-04-25T00:15:33.669Z,87.12
2019-04-25T00:16:33.573Z,87.60
2019-04-25T00:17:33.499Z,87.41
2019-04-25T00:18:33.421Z,87.98
2019-04-25T00:19:33.349Z,88.90
2019-04-25T00:20:33.251Z,99.99
2019-04-25T00:21:33.895Z,99.99
2019-04-25T00:22:33.099Z,99.99
2019-04-25T00:23:33.012Z,99.99
2019-04-25T00:24:32.938Z,99.99
2019-04-25T00:25:32.849Z,99.99
2019-04-25T00:26:32.774Z,99.99
2019-04-25T00:27:32.687Z,99.99
2019-04-25T00:28:32.617Z,99.99
2019-04-25T00:29:32.526Z,99.99
2019-04-25T00:30:32.458Z,99.99
2019-04-25T00:31:32.374Z,99.99
2019-04-25T00:32:32.289Z,99.99
2019-04-25T00:33:32.213Z,99.99
2019-04-25T00:34:33.661Z,99.99
2019-04-25T00:35:32.052Z,99.99
2019-04-25T00:36:31.968Z,99.99
2019-04-25T00:37:32.300Z,99.99
2019-04-25T00:38:31.886Z,99.99
2019-04-25T00:39:31.952Z,99.99
2019-04-25T00:40:31.886Z,99.99
2019-04-25T00:41:32.056Z,99.99
2019-04-25T00:42:32.009Z,99.99
2019-04-25T00:43:31.523Z,99.99
2019-04-25T00:44:31.924Z,99.99
2019-04-25T00:45:31.732Z,99.99
2019-04-25T00:46:32.220Z,99.99
2019-04-25T00:47:31.538Z,99.99
2019-04-25T00:48:31.684Z,99.99
2019-04-25T00:49:32.086Z,99.99
2019-04-25T00:50:31.950Z,99.99
2019-04-25T00:51:31.776Z,99.99
2019-04-25T00:52:31.334Z,99.99
2019-04-25T00:53:31.945Z,99.99
2019-04-25T00:54:31.347Z,99.99
2019-04-25T00:55:31.460Z,99.99
2019-04-25T00:56:32.075Z,99.99
2019-04-25T00:57:31.920Z,99.99
2019-04-25T00:58:31.432Z,99.99
2019-04-25T00:59:31.934Z,99.99
2019-04-25T01:00:30.016Z,99.99
2019-04-25T01:01:31.579Z,99.99
2019-04-25T01:02:31.312Z,99.99
2019-04-25T01:03:31.563Z,99.99
2019-04-25T01:04:29.695Z,99.99
2019-04-25T01:05:29.606Z,99.99
2019-04-25T01:06:29.541Z,99.99
2019-04-25T01:07:29.443Z,99.99
2019-04-25T01:08:29.369Z,99.99
2019-04-25T01:09:29.279Z,99.99
2019-04-25T01:10:29.204Z,99.99
2019-04-25T01:11:29.117Z,99.99
2019-04-25T01:12:29.043Z,99.99
2019-04-25T01:13:28.954Z,99.99
2019-04-25T01:14:28.880Z,99.99
2019-04-25T01:15:28.793Z,99.99
2019-04-25T01:16:28.718Z,99.99
2019-04-25T01:17:28.630Z,99.99
2019-04-25T01:18:29.373Z,99.99
2019-04-25T01:19:28.469Z,99.99
2019-04-25T01:20:28.393Z,99.99
2019-04-25T01:21:28.336Z,99.99
2019-04-25T01:22:28.230Z,99.99
2019-04-25T01:23:28.144Z,99.99
2019-04-25T01:24:28.069Z,99.99
2019-04-25T01:25:38.616Z,99.99
2019-04-25T01:26:27.905Z,99.99
2019-04-25T01:27:27.819Z,99.99
2019-04-25T01:28:27.743Z,99.99
2019-04-25T01:29:27.655Z,99.99
2019-04-25T01:30:27.581Z,99.99
2019-04-25T01:31:27.495Z,99.99
2019-04-25T01:32:27.419Z,99.99
2019-04-25T01:33:27.331Z,99.99
2019-04-25T01:34:27.256Z,99.99
2019-04-25T01:35:27.170Z,99.99
2019-04-25T01:36:27.095Z,99.99
2019-04-25T01:37:27.008Z,99.99
2019-04-25T01:38:26.925Z,99.99
2019-04-25T01:39:26.844Z,99.99
2019-04-25T01:40:26.759Z,99.99
2019-04-25T01:41:26.682Z,99.99
2019-04-25T01:42:26.595Z,99.99
2019-04-25T01:43:26.522Z,99.99
2019-04-25T01:44:26.434Z,99.99
2019-04-25T01:45:26.369Z,99.99
2019-04-25T01:46:26.283Z,99.99
2019-04-25T01:47:26.196Z,99.99
2019-04-25T01:48:26.121Z,99.99
2019-04-25T01:49:26.033Z,99.99
2019-04-25T01:50:25.946Z,99.99
2019-04-25T01:51:25.871Z,99.99
2019-04-25T01:52:25.784Z,99.99
2019-04-25T01:53:25.710Z,99.99
2019-04-25T01:54:25.621Z,99.99
2019-04-25T01:55:25.548Z,99.99
2019-04-25T01:56:25.464Z,99.99
2019-04-25T01:57:25.384Z,99.99
2019-04-25T01:58:25.304Z,99.99
2019-04-25T01:59:25.223Z,99.99
2019-04-25T02:00:25.134Z,99.99
2019-04-25T02:01:25.059Z,99.99
2019-04-25T02:02:24.972Z,99.99
2019-04-25T02:03:27.064Z,99.99
2019-04-25T02:04:24.809Z,99.99
2019-04-25T02:05:24.734Z,99.99
2019-04-25T02:06:24.800Z,99.99
2019-04-25T02:07:24.574Z,99.99
2019-04-25T02:08:24.484Z,99.99
2019-04-25T02:09:24.933Z,99.99
2019-04-25T02:10:24.323Z,99.99
2019-04-25T02:11:24.247Z,99.99
2019-04-25T02:12:24.173Z,99.99
2019-04-25T02:13:24.085Z,99.99
2019-04-25T02:14:23.999Z,99.99
2019-04-25T02:15:23.926Z,99.99
2019-04-25T02:16:23.888Z,99.99
2019-04-25T02:17:24.102Z,99.99
2019-04-25T02:18:23.782Z,99.99
2019-04-25T02:19:24.158Z,99.99
2019-04-25T02:20:23.885Z,99.99
2019-04-25T02:21:23.626Z,99.99
2019-04-25T02:22:24.303Z,99.99
2019-04-25T02:23:24.036Z,99.99
2019-04-25T02:24:23.724Z,99.99
2019-04-25T02:25:24.558Z,99.99
2019-04-25T02:26:24.079Z,99.99
2019-04-25T02:27:24.140Z,99.99
2019-04-25T02:28:24.041Z,99.99
2019-04-25T02:29:23.515Z,99.99
2019-04-25T02:30:25.268Z,99.99
2019-04-25T02:31:24.544Z,99.99
2019-04-25T02:32:24.514Z,99.99
2019-04-25T02:33:24.210Z,99.99
2019-04-25T02:34:24.847Z,99.99
2019-04-25T02:35:24.305Z,99.99
2019-04-25T02:36:24.532Z,99.99
2019-04-25T02:37:22.156Z,99.99
2019-04-25T02:38:24.125Z,99.99
2019-04-25T02:39:21.979Z,99.99
2019-04-25T02:40:23.797Z,99.99
2019-04-25T02:41:21.818Z,99.99
2019-04-25T02:42:24.397Z,99.99
2019-04-25T02:43:23.774Z,99.99
2019-04-25T02:44:21.565Z,99.99
2019-04-25T02:45:21.490Z,99.99
2019-04-25T02:46:21.402Z,99.99
2019-04-25T02:47:21.327Z,99.99
2019-04-25T02:48:21.252Z,99.99
2019-04-25T02:49:34.769Z,99.99
2019-04-25T02:50:21.079Z,99.99
2019-04-25T02:51:21.002Z,99.99
2019-04-25T02:52:20.915Z,99.99
2019-04-25T02:53:20.840Z,99.99
2019-04-25T02:54:20.763Z,99.99
2019-04-25T02:55:30.833Z,99.99
2019-04-25T02:56:31.204Z,99.99
2019-04-25T02:57:20.515Z,99.99
2019-04-25T02:58:20.432Z,99.99
2019-04-25T02:59:20.354Z,99.99
2019-04-25T03:00:20.279Z,99.99
2019-04-25T03:01:25.124Z,99.99
2019-04-25T03:02:20.102Z,99.99
2019-04-25T03:03:20.029Z,99.99
2019-04-25T03:04:19.941Z,99.99
2019-04-25T03:05:19.879Z,99.99
2019-04-25T03:06:19.784Z,99.99
2019-04-25T03:07:19.712Z,99.99
2019-04-25T03:08:19.619Z,99.99
2019-04-25T03:09:19.542Z,99.99
2019-04-25T03:10:19.463Z,99.99
2019-04-25T03:11:19.380Z,99.99
2019-04-25T03:12:29.815Z,99.99
2019-04-25T03:13:19.226Z,99.99
2019-04-25T03:14:19.129Z,99.99
2019-04-25T03:15:19.060Z,99.99
2019-04-25T03:16:18.967Z,99.99
2019-04-25T03:17:18.893Z,99.99
2019-04-25T03:18:18.804Z,99.99
2019-04-25T03:19:18.734Z,99.99
2019-04-25T03:20:18.642Z,99.99
2019-04-25T03:21:18.570Z,99.99
2019-04-25T03:22:18.481Z,99.99
2019-04-25T03:23:18.413Z,99.99
2019-04-25T03:24:18.362Z,99.99
2019-04-25T03:25:18.242Z,99.99
2019-04-25T03:26:18.156Z,99.99
2019-04-25T03:27:18.081Z,99.99
2019-04-25T03:28:17.992Z,99.99
2019-04-25T03:29:17.930Z,99.99
2019-04-25T03:30:18.263Z,99.99
2019-04-25T03:31:22.510Z,99.99
2019-04-25T03:32:20.021Z,99.99
2019-04-25T03:33:19.550Z,99.99
2019-04-25T03:34:20.621Z,99.99
2019-04-25T03:35:17.431Z,99.99
2019-04-25T03:36:17.347Z,99.99
2019-04-25T03:37:17.268Z,99.99
2019-04-25T03:38:17.181Z,99.99
2019-04-25T03:39:17.107Z,99.99
2019-04-25T03:40:17.020Z,99.99
2019-04-25T03:41:16.958Z,99.99
2019-04-25T03:42:16.862Z,99.99
2019-04-25T03:43:16.782Z,99.99
2019-04-25T03:44:16.693Z,99.99
2019-04-25T03:45:16.628Z,99.99
2019-04-25T03:46:16.532Z,99.99
2019-04-25T03:47:16.467Z,99.99
2019-04-25T03:48:16.370Z,99.99
2019-04-25T03:49:16.294Z,99.99
2019-04-25T03:50:16.208Z,99.99
2019-04-25T03:51:16.136Z,99.99
2019-04-25T03:52:16.045Z,99.99
2019-04-25T03:53:15.970Z,99.99
2019-04-25T03:54:15.883Z,99.99
2019-04-25T03:55:15.808Z,99.99
2019-04-25T03:56:15.720Z,99.99
2019-04-25T03:57:15.645Z,99.99
2019-04-25T03:58:15.558Z,99.99
2019-04-25T03:59:16.107Z,99.99
2019-04-25T04:00:15.421Z,99.99
2019-04-25T04:01:15.697Z,99.99
2019-04-25T04:02:15.364Z,99.99
2019-04-25T04:03:15.251Z,99.99
2019-04-25T04:04:16.329Z,99.99
2019-04-25T04:05:15.086Z,99.99
2019-04-25T04:06:15.673Z,99.99
2019-04-25T04:07:15.856Z,99.99
2019-04-25T04:08:15.752Z,99.99
2019-04-25T04:09:15.234Z,99.99
2019-04-25T04:10:15.429Z,99.99
2019-04-25T04:11:15.516Z,99.99
2019-04-25T04:12:14.764Z,99.99
2019-04-25T04:13:15.515Z,99.99
2019-04-25T04:14:15.393Z,99.99
2019-04-25T04:15:15.579Z,99.99
2019-04-25T04:16:14.764Z,99.99
2019-04-25T04:17:15.099Z,99.99
2019-04-25T04:18:16.242Z,99.99
2019-04-25T04:19:14.782Z,99.99
2019-04-25T04:20:14.765Z,99.99
2019-04-25T04:21:15.912Z,99.99
2019-04-25T04:22:15.116Z,99.99
2019-04-25T04:23:14.352Z,99.99
2019-04-25T04:24:14.159Z,99.99
2019-04-25T04:25:13.880Z,99.99
2019-04-25T04:26:13.663Z,99.99
2019-04-25T04:27:14.484Z,99.99
2019-04-25T04:28:14.047Z,99.99
2019-04-25T04:29:14.146Z,99.99
2019-04-25T04:30:14.146Z,99.99
2019-04-25T04:31:14.311Z,99.99
2019-04-25T04:32:14.389Z,99.99
2019-04-25T04:33:24.263Z,99.99
2019-04-25T04:34:14.331Z,99.99
2019-04-25T04:35:14.402Z,99.99
2019-04-25T04:36:14.654Z,99.99
2019-04-25T04:37:13.960Z,99.99
2019-04-25T04:38:12.300Z,99.99
2019-04-25T04:39:13.873Z,99.99
2019-04-25T04:40:12.142Z,99.99
2019-04-25T04:41:12.068Z,99.99
2019-04-25T04:42:13.635Z,99.99
2019-04-25T04:43:11.900Z,99.99
2019-04-25T04:44:11.905Z,99.99
2019-04-25T04:45:12.408Z,99.99
2019-04-25T04:46:12.096Z,99.99
2019-04-25T04:47:12.104Z,99.99
2019-04-25T04:48:12.753Z,99.99
2019-04-25T04:49:12.296Z,99.99
2019-04-25T04:50:11.328Z,99.99
2019-04-25T04:51:11.250Z,99.99
2019-04-25T04:52:11.163Z,99.99
2019-04-25T04:53:11.088Z,99.99
2019-04-25T04:54:11.052Z,99.99
2019-04-25T04:55:11.647Z,99.99
2019-04-25T04:56:11.355Z,99.99
2019-04-25T04:57:23.233Z,99.99
2019-04-25T04:58:11.171Z,99.99
2019-04-25T04:59:10.946Z,99.99
2019-04-25T05:00:11.067Z,99.99
2019-04-25T05:01:11.103Z,99.99
2019-04-25T05:02:11.343Z,99.99
2019-04-25T05:03:10.476Z,99.99
2019-04-25T05:04:10.615Z,99.99
2019-04-25T05:05:10.606Z,99.99
2019-04-25T05:06:10.897Z,99.99
2019-04-25T05:07:09.940Z,99.99
2019-04-25T05:08:10.918Z,99.99
2019-04-25T05:09:09.790Z,99.99
2019-04-25T05:10:10.469Z,99.99
2019-04-25T05:11:09.616Z,99.99
2019-04-25T05:12:09.542Z,99.99
2019-04-25T05:13:09.452Z,99.99
2019-04-25T05:14:09.378Z,99.99
2019-04-25T05:15:09.291Z,99.99
2019-04-25T05:16:09.217Z,99.99
2019-04-25T05:17:09.129Z,99.99
2019-04-25T05:18:09.056Z,99.99
2019-04-25T05:19:08.967Z,99.99
2019-04-25T05:20:08.892Z,99.99
2019-04-25T05:21:08.816Z,99.99
2019-04-25T05:22:08.729Z,99.99
2019-04-25T05:23:08.974Z,99.99
2019-04-25T05:24:08.567Z,99.99
2019-04-25T05:25:08.479Z,99.99
2019-04-25T05:26:08.406Z,99.99
2019-04-25T05:27:08.317Z,99.96
2019-04-25T05:28:08.245Z,98.52
2019-04-25T05:29:08.154Z,97.61
2019-04-25T05:30:08.092Z,96.94
2019-04-25T05:31:07.993Z,96.84
2019-04-25T05:32:07.919Z,96.80
2019-04-25T05:33:07.830Z,97.18
2019-04-25T05:34:07.755Z,97.42
2019-04-25T05:35:07.679Z,97.42
2019-04-25T05:36:07.594Z,97.23
2019-04-25T05:37:07.506Z,96.08
2019-04-25T05:38:07.431Z,96.08
2019-04-25T05:39:07.369Z,95.03
2019-04-25T05:40:07.269Z,95.79
2019-04-25T05:41:07.198Z,95.36
2019-04-25T05:42:07.706Z,93.30
2019-04-25T05:43:07.031Z,93.44
2019-04-25T05:44:06.943Z,92.77
2019-04-25T05:45:06.869Z,94.12
2019-04-25T05:46:06.781Z,92.77
2019-04-25T05:47:06.706Z,91.82
2019-04-25T05:48:06.644Z,91.05
2019-04-25T05:49:06.545Z,91.14
2019-04-25T05:50:06.469Z,92.39
2019-04-25T05:51:06.399Z,92.58
2019-04-25T05:52:06.306Z,92.87
2019-04-25T05:53:06.223Z,92.05
2019-04-25T05:54:06.145Z,90.57
2019-04-25T05:55:06.070Z,91.34
2019-04-25T05:56:05.995Z,91.05
2019-04-25T05:57:05.912Z,91.43
2019-04-25T05:58:05.820Z,91.05
2019-04-25T05:59:05.745Z,90.67
2019-04-25T06:00:05.670Z,89.90
2019-04-25T06:01:05.584Z,90.86
2019-04-25T06:02:05.508Z,89.80
2019-04-25T06:03:05.423Z,90.28
2019-04-25T06:04:05.518Z,89.90
2019-04-25T06:05:05.260Z,89.61
2019-04-25T06:06:05.183Z,89.51
2019-04-25T06:07:05.680Z,89.80
2019-04-25T06:08:05.021Z,90.57
2019-04-25T06:09:04.947Z,89.95
2019-04-25T06:10:04.858Z,91.29
2019-04-25T06:11:04.786Z,90.33
2019-04-25T06:12:04.811Z,90.81
2019-04-25T06:13:04.622Z,90.62
2019-04-25T06:14:04.546Z,90.28
2019-04-25T06:15:04.459Z,90.00
2019-04-25T06:16:04.386Z,90.67
2019-04-25T06:17:04.298Z,90.95
2019-04-25T06:18:04.223Z,89.71
2019-04-25T06:19:13.597Z,90.67
2019-04-25T06:20:06.127Z,90.09
2019-04-25T06:21:03.985Z,89.80
2019-04-25T06:22:03.899Z,90.00
2019-04-25T06:23:03.823Z,89.90
2019-04-25T06:24:04.298Z,90.67
2019-04-25T06:25:06.111Z,90.76
2019-04-25T06:26:18.530Z,91.05
2019-04-25T06:27:03.824Z,90.86
2019-04-25T06:28:03.768Z,89.61
2019-04-25T06:29:03.385Z,89.23
2019-04-25T06:30:04.355Z,88.84
2019-04-25T06:31:04.415Z,89.18
2019-04-25T06:32:06.577Z,89.28
2019-04-25T06:33:03.322Z,90.05
2019-04-25T06:34:04.477Z,89.57
2019-04-25T06:35:04.099Z,89.32
2019-04-25T06:36:04.169Z,88.17
2019-04-25T06:37:04.381Z,87.41
2019-04-25T06:38:03.615Z,87.70
2019-04-25T06:39:03.990Z,87.98
2019-04-25T06:40:03.478Z,87.02
2019-04-25T06:41:03.568Z,87.31
2019-04-25T06:42:03.913Z,86.83
2019-04-25T06:43:03.367Z,85.78
2019-04-25T06:44:02.153Z,85.92
2019-04-25T06:45:03.458Z,85.92
2019-04-25T06:46:01.988Z,84.58
2019-04-25T06:47:03.261Z,84.58
2019-04-25T06:48:01.826Z,85.34
2019-04-25T06:49:03.418Z,84.82
2019-04-25T06:50:01.664Z,84.28
2019-04-25T06:51:01.588Z,83.91
2019-04-25T06:52:01.501Z,84.09
2019-04-25T06:53:01.427Z,83.23
2019-04-25T06:54:01.345Z,84.00
2019-04-25T06:55:01.271Z,83.14
2019-04-25T06:56:01.188Z,82.41
2019-04-25T06:57:01.101Z,82.03
2019-04-25T06:58:10.065Z,81.26
2019-04-25T06:59:00.952Z,82.12
2019-04-25T07:00:00.863Z,81.45
2019-04-25T07:01:01.039Z,81.35
2019-04-25T07:02:00.713Z,80.73
2019-04-25T07:03:00.633Z,79.96
2019-04-25T07:04:00.553Z,78.84
2019-04-25T07:05:00.464Z,77.83
2019-04-25T07:06:00.390Z,77.15
2019-04-25T07:07:09.644Z,75.27
2019-04-25T07:08:00.227Z,75.52
2019-04-25T07:09:00.152Z,75.37
2019-04-25T07:10:00.139Z,75.75
2019-04-25T07:10:59.990Z,75.04
2019-04-25T07:11:59.915Z,75.52
2019-04-25T07:12:59.828Z,76.34
2019-04-25T07:13:59.756Z,76.40
2019-04-25T07:14:59.680Z,77.46
2019-04-25T07:15:59.603Z,76.64
2019-04-25T07:16:59.516Z,76.06
2019-04-25T07:17:59.440Z,75.57
2019-04-25T07:18:59.353Z,75.25
2019-04-25T07:19:59.279Z,75.96
2019-04-25T07:20:59.203Z,76.54
2019-04-25T07:21:59.116Z,76.06
2019-04-25T07:22:59.041Z,75.42
2019-04-25T07:23:58.966Z,72.77
2019-04-25T07:24:58.879Z,72.42
2019-04-25T07:25:58.804Z,71.08
2019-04-25T07:26:58.731Z,70.01
2019-04-25T07:27:58.674Z,69.15
2019-04-25T07:28:58.566Z,69.18
2019-04-25T07:29:58.492Z,68.90
2019-04-25T07:30:58.418Z,68.99
2019-04-25T07:31:58.330Z,68.74
2019-04-25T07:32:58.255Z,68.74
2019-04-25T07:33:58.180Z,67.42
2019-04-25T07:34:58.106Z,67.39
2019-04-25T07:35:58.030Z,66.46
2019-04-25T07:36:57.942Z,65.91
2019-04-25T07:37:57.870Z,65.75
2019-04-25T07:39:07.553Z,64.92
2019-04-25T07:39:57.729Z,65.24
2019-04-25T07:40:57.631Z,63.60
2019-04-25T07:41:57.557Z,63.40
2019-04-25T07:42:57.481Z,62.28
2019-04-25T07:43:57.406Z,61.34
2019-04-25T07:44:57.356Z,60.60
2019-04-25T07:45:57.257Z,59.53
2019-04-25T07:46:57.188Z,59.60
2019-04-25T07:47:57.140Z,60.28
2019-04-25T07:48:57.021Z,60.09
2019-04-25T07:49:56.944Z,59.66
2019-04-25T07:50:56.882Z,58.21
2019-04-25T07:51:56.794Z,58.21
2019-04-25T07:52:56.719Z,56.71
2019-04-25T07:53:56.645Z,57.38
2019-04-25T07:54:56.588Z,57.38
2019-04-25T07:55:56.495Z,58.35
2019-04-25T07:56:56.419Z,58.93
2019-04-25T07:57:56.344Z,57.87
2019-04-25T07:58:56.272Z,59.41
2019-04-25T07:59:56.195Z,58.47
2019-04-25T08:00:56.119Z,58.18
2019-04-25T08:01:56.045Z,58.12
2019-04-25T08:02:55.971Z,57.56
2019-04-25T08:03:55.909Z,56.86
2019-04-25T08:04:55.900Z,56.47
2019-04-25T08:05:55.762Z,56.67
2019-04-25T08:06:55.684Z,57.37
2019-04-25T08:07:55.609Z,57.43
2019-04-25T08:08:55.536Z,55.94
2019-04-25T08:09:55.460Z,55.40
2019-04-25T08:10:55.385Z,55.17
2019-04-25T08:11:55.309Z,54.37
2019-04-25T08:12:55.237Z,55.85
2019-04-25T08:13:55.159Z,55.40
2019-04-25T08:14:55.085Z,55.36
2019-04-25T08:15:55.021Z,56.94
2019-04-25T08:16:54.946Z,55.81
2019-04-25T08:17:54.872Z,54.64
2019-04-25T08:18:54.798Z,54.19
2019-04-25T08:19:54.722Z,54.48
2019-04-25T08:20:54.647Z,53.49
2019-04-25T08:21:54.585Z,55.19
2019-04-25T08:22:58.835Z,58.25
2019-04-25T08:23:54.451Z,58.98
2019-04-25T08:24:54.360Z,57.28
2019-04-25T08:25:54.467Z,56.62
2019-04-25T08:26:54.223Z,57.37
2019-04-25T08:27:55.233Z,56.43
2019-04-25T08:28:57.500Z,56.37
2019-04-25T08:29:54.327Z,58.26
2019-04-25T08:30:55.006Z,60.25
2019-04-25T08:31:53.862Z,60.41
2019-04-25T08:32:54.081Z,58.14
2019-04-25T08:33:53.712Z,57.66
2019-04-25T08:34:54.233Z,55.68
2019-04-25T08:36:04.265Z,54.71
2019-04-25T08:36:54.267Z,54.52
2019-04-25T08:37:53.747Z,53.85
2019-04-25T08:38:53.545Z,55.10
2019-04-25T08:39:53.931Z,56.87
2019-04-25T08:40:54.339Z,55.36
2019-04-25T08:41:53.973Z,58.54
2019-04-25T08:42:53.781Z,60.93
2019-04-25T08:43:54.422Z,61.12
2019-04-25T08:44:53.460Z,61.83
2019-04-25T08:45:54.274Z,60.63
2019-04-25T08:46:53.536Z,59.59
2019-04-25T08:47:53.830Z,56.88
2019-04-25T08:48:53.909Z,55.94
2019-04-25T08:49:53.860Z,55.68
2019-04-25T08:50:53.686Z,55.79
2019-04-25T08:51:53.960Z,58.25
2019-04-25T08:52:52.357Z,59.09
2019-04-25T08:53:53.476Z,59.89
2019-04-25T08:54:52.201Z,59.44
2019-04-25T08:55:53.910Z,59.47
2019-04-25T08:56:53.162Z,58.56
2019-04-25T08:57:53.845Z,57.14
2019-04-25T08:59:03.224Z,55.49
2019-04-25T08:59:52.925Z,55.71
2019-04-25T09:00:59.184Z,55.24
2019-04-25T09:01:53.478Z,56.60
2019-04-25T09:02:51.627Z,56.60
2019-04-25T09:03:51.566Z,56.93
2019-04-25T09:04:51.492Z,58.37
2019-04-25T09:05:51.478Z,58.14
2019-04-25T09:06:51.352Z,56.98
2019-04-25T09:07:51.279Z,56.30
2019-04-25T09:08:51.229Z,55.53
2019-04-25T09:09:51.128Z,56.02
2019-04-25T09:10:51.071Z,57.01
2019-04-25T09:11:50.992Z,56.26
2019-04-25T09:12:50.915Z,54.52
2019-04-25T09:13:50.853Z,55.02
2019-04-25T09:14:50.777Z,56.21
2019-04-25T09:15:50.703Z,55.05
2019-04-25T09:16:50.635Z,55.21
2019-04-25T09:17:50.567Z,55.15
2019-04-25T09:18:50.491Z,53.36
2019-04-25T09:19:50.428Z,52.90
2019-04-25T09:20:50.353Z,53.45
2019-04-25T09:21:50.279Z,52.97
2019-04-25T09:22:50.216Z,53.07
2019-04-25T09:23:50.142Z,52.75
2019-04-25T09:24:50.067Z,52.73
2019-04-25T09:25:50.004Z,54.01
2019-04-25T09:26:49.929Z,52.95
2019-04-25T09:27:49.867Z,52.87
2019-04-25T09:28:49.796Z,53.57
2019-04-25T09:29:49.729Z,54.08
2019-04-25T09:30:49.656Z,52.34
2019-04-25T09:31:49.584Z,51.95
2019-04-25T09:32:49.504Z,51.95
2019-04-25T09:33:49.443Z,51.18
2019-04-25T09:34:50.102Z,50.72
2019-04-25T09:35:49.296Z,49.32
2019-04-25T09:36:49.230Z,50.38
2019-04-25T09:37:49.155Z,50.02
2019-04-25T09:38:49.080Z,50.14
2019-04-25T09:39:49.019Z,50.70
2019-04-25T09:40:48.946Z,51.68
2019-04-25T09:41:48.869Z,52.08
2019-04-25T09:42:48.796Z,50.40
2019-04-25T09:43:48.731Z,49.49
2019-04-25T09:44:48.656Z,49.68
2019-04-25T09:45:48.590Z,49.68
2019-04-25T09:46:48.519Z,50.04
2019-04-25T09:47:48.431Z,51.71
2019-04-25T09:48:48.358Z,52.29
2019-04-25T09:49:48.366Z,52.48
2019-04-25T09:50:48.224Z,52.72
2019-04-25T09:51:48.145Z,54.19
2019-04-25T09:52:48.718Z,53.45
2019-04-25T09:53:51.002Z,52.22
2019-04-25T09:54:47.920Z,50.65
2019-04-25T09:55:48.287Z,50.76
2019-04-25T09:56:47.770Z,52.02
2019-04-25T09:57:47.708Z,50.07
2019-04-25T09:58:48.582Z,50.07
2019-04-25T09:59:48.121Z,50.45
2019-04-25T10:00:47.651Z,49.85
2019-04-25T10:01:48.207Z,50.04
2019-04-25T10:02:47.349Z,49.73
2019-04-25T10:03:47.360Z,51.25
2019-04-25T10:04:48.121Z,52.04
2019-04-25T10:05:47.112Z,52.55
2019-04-25T10:06:47.563Z,49.53
2019-04-25T10:07:48.908Z,50.33
2019-04-25T10:08:47.493Z,47.87
2019-04-25T10:09:46.809Z,47.87
2019-04-25T10:10:46.789Z,47.50
2019-04-25T10:11:46.659Z,46.33
2019-04-25T10:12:47.422Z,47.41
2019-04-25T10:13:46.586Z,47.94
2019-04-25T10:14:47.920Z,49.37
2019-04-25T10:15:46.363Z,50.84
2019-04-25T10:16:46.273Z,51.82
2019-04-25T10:17:46.299Z,50.28
2019-04-25T10:18:46.123Z,50.23
2019-04-25T10:19:46.047Z,46.66
2019-04-25T10:20:46.332Z,46.49
2019-04-25T10:21:45.898Z,47.00
2019-04-25T10:22:46.560Z,47.79
2019-04-25T10:23:46.746Z,46.53
2019-04-25T10:24:57.568Z,45.59
2019-04-25T10:25:46.474Z,45.40
2019-04-25T10:26:46.318Z,44.94
2019-04-25T10:27:48.186Z,46.88
2019-04-25T10:28:45.373Z,48.49
2019-04-25T10:29:51.620Z,49.65
2019-04-25T10:30:45.227Z,50.74
2019-04-25T10:31:45.200Z,49.75
2019-04-25T10:32:45.374Z,49.82
2019-04-25T10:33:45.808Z,50.71
2019-04-25T10:34:46.116Z,50.33
2019-04-25T10:35:52.099Z,49.87
2019-04-25T10:36:45.417Z,50.09
2019-04-25T10:37:45.587Z,49.80
2019-04-25T10:38:54.497Z,48.35
2019-04-25T10:39:44.836Z,49.54
2019-04-25T10:40:45.159Z,49.05
2019-04-25T10:41:46.150Z,49.60
2019-04-25T10:42:47.584Z,47.00
2019-04-25T10:43:44.247Z,45.47
2019-04-25T10:44:45.721Z,45.08
2019-04-25T10:45:44.748Z,45.57
2019-04-25T10:46:46.910Z,45.18
2019-04-25T10:47:44.301Z,45.20
2019-04-25T10:48:44.027Z,45.18
2019-04-25T10:49:44.973Z,44.81
2019-04-25T10:50:45.495Z,45.42
2019-04-25T10:51:44.726Z,45.51
2019-04-25T10:52:45.514Z,44.47
2019-04-25T10:53:45.588Z,43.60
2019-04-25T10:54:45.243Z,42.96
2019-04-25T10:55:43.339Z,42.65
2019-04-25T10:56:45.649Z,41.14
2019-04-25T10:57:44.882Z,39.61
2019-04-25T10:58:44.483Z,39.70
2019-04-25T10:59:54.533Z,38.46
2019-04-25T11:00:44.852Z,37.41
2019-04-25T11:01:44.672Z,38.01
2019-04-25T11:02:43.778Z,37.32
2019-04-25T11:03:44.220Z,37.39
2019-04-25T11:04:44.252Z,37.35
2019-04-25T11:05:42.807Z,38.54
2019-04-25T11:06:45.394Z,38.42
2019-04-25T11:07:42.478Z,37.78
2019-04-25T11:08:42.417Z,36.93
2019-04-25T11:09:44.962Z,37.01
2019-04-25T11:10:43.991Z,36.63
2019-04-25T11:11:43.104Z,36.63
2019-04-25T11:12:42.830Z,36.65
2019-04-25T11:13:42.067Z,36.41
2019-04-25T11:14:42.229Z,34.88
2019-04-25T11:15:41.985Z,34.40
2019-04-25T11:16:42.851Z,33.25
2019-04-25T11:17:42.431Z,32.29
2019-04-25T11:18:41.871Z,31.80
2019-04-25T11:19:42.483Z,31.82
2019-04-25T11:20:42.673Z,30.49
2019-04-25T11:21:42.694Z,30.31
2019-04-25T11:22:42.370Z,29.71
2019-04-25T11:23:41.444Z,30.38
2019-04-25T11:24:41.633Z,30.47
2019-04-25T11:25:41.523Z,30.77
2019-04-25T11:26:41.582Z,30.29
2019-04-25T11:27:41.117Z,29.47
2019-04-25T11:28:41.056Z,29.60
2019-04-25T11:29:41.627Z,29.82
2019-04-25T11:30:41.864Z,28.65
2019-04-25T11:31:40.856Z,29.07
2019-04-25T11:32:40.787Z,28.59
2019-04-25T11:33:40.718Z,27.25
2019-04-25T11:34:40.644Z,27.16
2019-04-25T11:35:40.582Z,27.64
2019-04-25T11:36:40.518Z,27.12
2019-04-25T11:37:40.456Z,28.77
2019-04-25T11:38:40.384Z,28.50
2019-04-25T11:39:40.318Z,28.59
2019-04-25T11:40:40.259Z,29.75
2019-04-25T11:41:40.182Z,29.67
2019-04-25T11:42:40.119Z,29.47
2019-04-25T11:43:40.057Z,29.66
2019-04-25T11:44:39.995Z,29.75
2019-04-25T11:45:39.919Z,29.95
2019-04-25T11:46:39.859Z,29.96
2019-04-25T11:47:39.796Z,30.21
2019-04-25T11:48:39.721Z,31.01
2019-04-25T11:49:39.657Z,31.52
2019-04-25T11:50:39.595Z,30.57
2019-04-25T11:51:39.533Z,30.30
2019-04-25T11:52:39.463Z,29.49
2019-04-25T11:53:39.395Z,28.63
2019-04-25T11:54:39.333Z,28.74
2019-04-25T11:55:39.271Z,29.10
2019-04-25T11:56:39.196Z,29.60
2019-04-25T11:57:39.140Z,29.11
2019-04-25T11:58:39.071Z,30.00
2019-04-25T11:59:39.008Z,28.64
2019-04-25T12:00:38.946Z,30.02
2019-04-25T12:01:38.871Z,28.81
2019-04-25T12:02:38.809Z,28.88
2019-04-25T12:03:38.746Z,30.67
2019-04-25T12:04:38.684Z,31.48
2019-04-25T12:05:38.609Z,31.22
2019-04-25T12:06:38.547Z,30.57
2019-04-25T12:07:38.484Z,30.29
2019-04-25T12:08:38.422Z,29.71
2019-04-25T12:09:38.348Z,28.67
2019-04-25T12:10:38.285Z,28.49
2019-04-25T12:11:38.222Z,27.29
2019-04-25T12:12:38.161Z,27.40
2019-04-25T12:13:38.098Z,26.89
2019-04-25T12:14:38.022Z,27.61
2019-04-25T12:15:37.961Z,29.57
2019-04-25T12:16:37.897Z,28.99
2019-04-25T12:17:37.835Z,29.00
2019-04-25T12:18:37.773Z,29.43
2019-04-25T12:19:38.164Z,30.54
2019-04-25T12:20:37.637Z,28.96
2019-04-25T12:21:37.581Z,29.56
2019-04-25T12:22:37.511Z,29.47
2019-04-25T12:23:37.437Z,28.82
2019-04-25T12:24:37.373Z,27.08
2019-04-25T12:25:37.312Z,26.88
2019-04-25T12:26:37.249Z,26.89
2019-04-25T12:27:37.190Z,26.70
2019-04-25T12:28:37.112Z,26.79
2019-04-25T12:29:38.844Z,25.90
2019-04-25T12:30:40.182Z,26.28
2019-04-25T12:31:36.924Z,27.17
2019-04-25T12:32:36.850Z,27.08
2019-04-25T12:33:36.790Z,26.60
2019-04-25T12:34:36.724Z,26.89
2019-04-25T12:35:36.665Z,26.82
2019-04-25T12:36:36.613Z,25.77
2019-04-25T12:37:36.528Z,26.71
2019-04-25T12:38:36.465Z,26.95
2019-04-25T12:39:36.414Z,27.55
2019-04-25T12:40:36.342Z,27.65
2019-04-25T12:41:36.276Z,27.37
2019-04-25T12:42:36.220Z,26.51
2019-04-25T12:43:36.142Z,25.51
2019-04-25T12:44:36.076Z,26.40
2019-04-25T12:45:36.013Z,25.59
2019-04-25T12:46:35.950Z,25.40
2019-04-25T12:47:35.876Z,26.10
2019-04-25T12:48:35.817Z,26.31
2019-04-25T12:49:35.758Z,26.72
2019-04-25T12:50:35.690Z,26.25
2019-04-25T12:51:35.626Z,24.60